sensor_id;sensor_type;location;lat;lon;timestamp;temperature;humidity
47310;DHT22;33046;52.270;6.832;2024-01-11T00:02:06;-0.80;91.10
47310;DHT22;33046;52.270;6.832;2024-01-11T00:04:13;-0.80;91.40
47310;DHT22;33046;52.270;6.832;2024-01-11T00:06:19;-0.80;91.30
47310;DHT22;33046;52.270;6.832;2024-01-11T00:08:26;-0.80;91.30
47310;DHT22;33046;52.270;6.832;2024-01-11T00:10:33;-0.80;91.20
47310;DHT22;33046;52.270;6.832;2024-01-11T00:12:40;-0.80;91.20
47310;DHT22;33046;52.270;6.832;2024-01-11T00:14:48;-0.80;91.10
47310;DHT22;33046;52.270;6.832;2024-01-11T00:16:55;-0.80;91.10
47310;DHT22;33046;52.270;6.832;2024-01-11T00:19:02;-0.80;91.30
47310;DHT22;33046;52.270;6.832;2024-01-11T00:21:09;-0.90;91.80
47310;DHT22;33046;52.270;6.832;2024-01-11T00:23:16;-0.90;91.60
47310;DHT22;33046;52.270;6.832;2024-01-11T00:25:23;-0.90;91.60
47310;DHT22;33046;52.270;6.832;2024-01-11T00:27:30;-0.90;91.70
47310;DHT22;33046;52.270;6.832;2024-01-11T00:29:36;-1.00;91.70
47310;DHT22;33046;52.270;6.832;2024-01-11T00:31:44;-1.00;91.70
47310;DHT22;33046;52.270;6.832;2024-01-11T00:33:51;-1.00;91.80
47310;DHT22;33046;52.270;6.832;2024-01-11T00:35:58;-1.00;92.00
47310;DHT22;33046;52.270;6.832;2024-01-11T00:38:05;-1.00;91.90
47310;DHT22;33046;52.270;6.832;2024-01-11T00:40:12;-1.00;91.70
47310;DHT22;33046;52.270;6.832;2024-01-11T00:42:19;-1.00;91.60
47310;DHT22;33046;52.270;6.832;2024-01-11T00:44:26;-1.10;91.50
47310;DHT22;33046;52.270;6.832;2024-01-11T00:46:33;-1.10;91.60
47310;DHT22;33046;52.270;6.832;2024-01-11T00:48:41;-1.20;91.90
47310;DHT22;33046;52.270;6.832;2024-01-11T00:50:48;-1.20;92.20
47310;DHT22;33046;52.270;6.832;2024-01-11T00:52:54;-1.20;92.20
47310;DHT22;33046;52.270;6.832;2024-01-11T00:55:01;-1.20;92.20
47310;DHT22;33046;52.270;6.832;2024-01-11T00:57:08;-1.20;92.40
47310;DHT22;33046;52.270;6.832;2024-01-11T00:59:15;-1.20;92.30
47310;DHT22;33046;52.270;6.832;2024-01-11T01:01:22;-1.20;92.40
47310;DHT22;33046;52.270;6.832;2024-01-11T01:03:29;-1.20;92.50
47310;DHT22;33046;52.270;6.832;2024-01-11T01:05:37;-1.20;92.40
47310;DHT22;33046;52.270;6.832;2024-01-11T01:07:44;-1.30;92.50
47310;DHT22;33046;52.270;6.832;2024-01-11T01:09:51;-1.30;92.50
47310;DHT22;33046;52.270;6.832;2024-01-11T01:11:57;-1.30;92.20
47310;DHT22;33046;52.270;6.832;2024-01-11T01:14:05;-1.20;92.10
47310;DHT22;33046;52.270;6.832;2024-01-11T01:16:12;-1.20;92.00
47310;DHT22;33046;52.270;6.832;2024-01-11T01:18:18;-1.20;92.20
47310;DHT22;33046;52.270;6.832;2024-01-11T01:20:25;-1.30;92.30
47310;DHT22;33046;52.270;6.832;2024-01-11T01:22:34;-1.30;92.40
47310;DHT22;33046;52.270;6.832;2024-01-11T01:24:40;-1.30;92.40
47310;DHT22;33046;52.270;6.832;2024-01-11T01:26:47;-1.30;92.40
47310;DHT22;33046;52.270;6.832;2024-01-11T01:28:54;-1.30;92.30
47310;DHT22;33046;52.270;6.832;2024-01-11T01:31:01;-1.30;92.50
47310;DHT22;33046;52.270;6.832;2024-01-11T01:33:08;-1.30;92.50
47310;DHT22;33046;52.270;6.832;2024-01-11T01:35:15;-1.30;92.50
47310;DHT22;33046;52.270;6.832;2024-01-11T01:37:22;-1.30;92.70
47310;DHT22;33046;52.270;6.832;2024-01-11T01:39:30;-1.30;92.70
47310;DHT22;33046;52.270;6.832;2024-01-11T01:41:37;-1.30;92.80
47310;DHT22;33046;52.270;6.832;2024-01-11T01:43:44;-1.30;92.80
47310;DHT22;33046;52.270;6.832;2024-01-11T01:45:51;-1.30;92.80
47310;DHT22;33046;52.270;6.832;2024-01-11T01:47:58;-1.30;92.90
47310;DHT22;33046;52.270;6.832;2024-01-11T01:50:06;-1.30;92.90
47310;DHT22;33046;52.270;6.832;2024-01-11T01:52:14;-1.40;92.90
47310;DHT22;33046;52.270;6.832;2024-01-11T01:54:23;-1.40;92.80
47310;DHT22;33046;52.270;6.832;2024-01-11T01:56:32;-1.40;92.90
47310;DHT22;33046;52.270;6.832;2024-01-11T01:58:39;-1.40;92.90
47310;DHT22;33046;52.270;6.832;2024-01-11T02:00:47;-1.50;92.80
47310;DHT22;33046;52.270;6.832;2024-01-11T02:02:55;-1.40;92.80
47310;DHT22;33046;52.270;6.832;2024-01-11T02:05:03;-1.40;92.80
47310;DHT22;33046;52.270;6.832;2024-01-11T02:07:11;-1.40;92.60
47310;DHT22;33046;52.270;6.832;2024-01-11T02:09:18;-1.50;92.80
47310;DHT22;33046;52.270;6.832;2024-01-11T02:11:25;-1.50;92.80
47310;DHT22;33046;52.270;6.832;2024-01-11T02:13:33;-1.50;92.90
47310;DHT22;33046;52.270;6.832;2024-01-11T02:15:40;-1.50;93.00
47310;DHT22;33046;52.270;6.832;2024-01-11T02:17:47;-1.50;92.90
47310;DHT22;33046;52.270;6.832;2024-01-11T02:19:54;-1.50;93.00
47310;DHT22;33046;52.270;6.832;2024-01-11T02:22:07;-1.50;93.10
47310;DHT22;33046;52.270;6.832;2024-01-11T02:24:16;-1.50;93.10
47310;DHT22;33046;52.270;6.832;2024-01-11T02:26:23;-1.50;93.10
47310;DHT22;33046;52.270;6.832;2024-01-11T02:28:30;-1.50;93.10
47310;DHT22;33046;52.270;6.832;2024-01-11T02:30:37;-1.50;93.10
47310;DHT22;33046;52.270;6.832;2024-01-11T02:32:45;-1.50;92.90
47310;DHT22;33046;52.270;6.832;2024-01-11T02:34:52;-1.50;92.80
47310;DHT22;33046;52.270;6.832;2024-01-11T02:36:59;-1.50;92.90
47310;DHT22;33046;52.270;6.832;2024-01-11T02:39:06;-1.50;92.90
47310;DHT22;33046;52.270;6.832;2024-01-11T02:41:16;-1.50;92.70
47310;DHT22;33046;52.270;6.832;2024-01-11T02:43:23;-1.50;92.80
47310;DHT22;33046;52.270;6.832;2024-01-11T02:45:29;-1.50;92.80
47310;DHT22;33046;52.270;6.832;2024-01-11T02:47:36;-1.50;92.90
47310;DHT22;33046;52.270;6.832;2024-01-11T02:49:43;-1.60;93.00
47310;DHT22;33046;52.270;6.832;2024-01-11T02:51:50;-1.70;92.90
47310;DHT22;33046;52.270;6.832;2024-01-11T02:53:57;-1.70;93.10
47310;DHT22;33046;52.270;6.832;2024-01-11T02:56:04;-1.70;93.40
47310;DHT22;33046;52.270;6.832;2024-01-11T02:58:12;-1.70;93.40
47310;DHT22;33046;52.270;6.832;2024-01-11T03:00:19;-1.70;93.40
47310;DHT22;33046;52.270;6.832;2024-01-11T03:02:26;-1.70;93.40
47310;DHT22;33046;52.270;6.832;2024-01-11T03:04:33;-1.70;93.20
47310;DHT22;33046;52.270;6.832;2024-01-11T03:06:39;-1.70;93.40
47310;DHT22;33046;52.270;6.832;2024-01-11T03:08:46;-1.70;93.20
47310;DHT22;33046;52.270;6.832;2024-01-11T03:10:53;-1.70;93.10
47310;DHT22;33046;52.270;6.832;2024-01-11T03:13:00;-1.70;93.20
47310;DHT22;33046;52.270;6.832;2024-01-11T03:15:09;-1.70;93.40
47310;DHT22;33046;52.270;6.832;2024-01-11T03:17:15;-1.70;93.60
47310;DHT22;33046;52.270;6.832;2024-01-11T03:19:22;-1.70;93.60
47310;DHT22;33046;52.270;6.832;2024-01-11T03:21:29;-1.70;93.60
47310;DHT22;33046;52.270;6.832;2024-01-11T03:23:36;-1.70;93.50
47310;DHT22;33046;52.270;6.832;2024-01-11T03:25:43;-1.70;93.60
47310;DHT22;33046;52.270;6.832;2024-01-11T03:27:50;-1.70;93.50
47310;DHT22;33046;52.270;6.832;2024-01-11T03:29:57;-1.70;93.40
47310;DHT22;33046;52.270;6.832;2024-01-11T03:32:05;-1.80;93.50
47310;DHT22;33046;52.270;6.832;2024-01-11T03:34:12;-1.90;93.30
47310;DHT22;33046;52.270;6.832;2024-01-11T03:36:23;-1.90;93.70
47310;DHT22;33046;52.270;6.832;2024-01-11T03:38:30;-1.80;93.70
47310;DHT22;33046;52.270;6.832;2024-01-11T03:40:37;-1.80;93.70
47310;DHT22;33046;52.270;6.832;2024-01-11T03:42:44;-1.80;93.80
47310;DHT22;33046;52.270;6.832;2024-01-11T03:44:51;-1.80;93.70
47310;DHT22;33046;52.270;6.832;2024-01-11T03:46:58;-1.80;93.80
47310;DHT22;33046;52.270;6.832;2024-01-11T03:49:06;-1.80;93.90
47310;DHT22;33046;52.270;6.832;2024-01-11T03:51:13;-1.80;94.20
47310;DHT22;33046;52.270;6.832;2024-01-11T03:53:20;-1.80;93.90
47310;DHT22;33046;52.270;6.832;2024-01-11T03:55:27;-1.80;93.90
47310;DHT22;33046;52.270;6.832;2024-01-11T03:57:34;-1.80;94.00
47310;DHT22;33046;52.270;6.832;2024-01-11T03:59:41;-1.80;93.90
47310;DHT22;33046;52.270;6.832;2024-01-11T04:01:47;-1.80;93.90
47310;DHT22;33046;52.270;6.832;2024-01-11T04:03:54;-1.80;94.10
47310;DHT22;33046;52.270;6.832;2024-01-11T04:06:03;-1.80;94.10
47310;DHT22;33046;52.270;6.832;2024-01-11T04:08:10;-1.90;94.00
47310;DHT22;33046;52.270;6.832;2024-01-11T04:10:17;-1.90;94.20
47310;DHT22;33046;52.270;6.832;2024-01-11T04:12:24;-1.90;94.20
47310;DHT22;33046;52.270;6.832;2024-01-11T04:14:31;-1.90;94.20
47310;DHT22;33046;52.270;6.832;2024-01-11T04:16:40;-1.80;94.10
47310;DHT22;33046;52.270;6.832;2024-01-11T04:18:46;-1.80;94.10
47310;DHT22;33046;52.270;6.832;2024-01-11T04:20:53;-2.00;94.10
47310;DHT22;33046;52.270;6.832;2024-01-11T04:23:02;-1.90;94.30
47310;DHT22;33046;52.270;6.832;2024-01-11T04:25:08;-1.90;94.20
47310;DHT22;33046;52.270;6.832;2024-01-11T04:27:15;-1.90;94.30
47310;DHT22;33046;52.270;6.832;2024-01-11T04:29:22;-1.90;94.30
47310;DHT22;33046;52.270;6.832;2024-01-11T04:31:29;-1.90;94.30
47310;DHT22;33046;52.270;6.832;2024-01-11T04:33:39;-1.90;94.20
47310;DHT22;33046;52.270;6.832;2024-01-11T04:35:46;-1.90;94.50
47310;DHT22;33046;52.270;6.832;2024-01-11T04:37:53;-1.90;94.60
47310;DHT22;33046;52.270;6.832;2024-01-11T04:40:01;-1.90;94.60
47310;DHT22;33046;52.270;6.832;2024-01-11T04:42:08;-1.90;94.60
47310;DHT22;33046;52.270;6.832;2024-01-11T04:44:14;-1.90;94.40
47310;DHT22;33046;52.270;6.832;2024-01-11T04:46:23;-1.80;94.50
47310;DHT22;33046;52.270;6.832;2024-01-11T04:48:30;-1.90;94.40
47310;DHT22;33046;52.270;6.832;2024-01-11T04:50:36;-1.80;94.30
47310;DHT22;33046;52.270;6.832;2024-01-11T04:52:43;-1.80;94.60
47310;DHT22;33046;52.270;6.832;2024-01-11T04:54:50;-1.90;94.40
47310;DHT22;33046;52.270;6.832;2024-01-11T04:56:58;-1.90;94.40
47310;DHT22;33046;52.270;6.832;2024-01-11T04:59:05;-1.80;94.30
47310;DHT22;33046;52.270;6.832;2024-01-11T05:01:13;-1.80;94.20
47310;DHT22;33046;52.270;6.832;2024-01-11T05:03:20;-1.90;94.00
47310;DHT22;33046;52.270;6.832;2024-01-11T05:05:26;-1.80;94.20
47310;DHT22;33046;52.270;6.832;2024-01-11T05:07:33;-1.80;94.40
47310;DHT22;33046;52.270;6.832;2024-01-11T05:09:40;-1.80;94.30
47310;DHT22;33046;52.270;6.832;2024-01-11T05:11:47;-1.90;94.40
47310;DHT22;33046;52.270;6.832;2024-01-11T05:13:55;-1.90;94.40
47310;DHT22;33046;52.270;6.832;2024-01-11T05:16:02;-1.90;94.60
47310;DHT22;33046;52.270;6.832;2024-01-11T05:18:09;-1.90;94.60
47310;DHT22;33046;52.270;6.832;2024-01-11T05:20:16;-1.90;94.90
47310;DHT22;33046;52.270;6.832;2024-01-11T05:22:23;-1.90;94.60
47310;DHT22;33046;52.270;6.832;2024-01-11T05:24:30;-2.00;94.60
47310;DHT22;33046;52.270;6.832;2024-01-11T05:26:37;-1.90;94.60
47310;DHT22;33046;52.270;6.832;2024-01-11T05:28:44;-1.90;94.50
47310;DHT22;33046;52.270;6.832;2024-01-11T05:30:52;-1.90;94.40
47310;DHT22;33046;52.270;6.832;2024-01-11T05:32:59;-2.00;94.40
47310;DHT22;33046;52.270;6.832;2024-01-11T05:35:06;-2.00;94.50
47310;DHT22;33046;52.270;6.832;2024-01-11T05:37:13;-2.10;94.70
47310;DHT22;33046;52.270;6.832;2024-01-11T05:39:20;-2.10;94.70
47310;DHT22;33046;52.270;6.832;2024-01-11T05:41:26;-2.10;94.70
47310;DHT22;33046;52.270;6.832;2024-01-11T05:43:33;-2.30;94.40
47310;DHT22;33046;52.270;6.832;2024-01-11T05:45:40;-2.20;94.70
47310;DHT22;33046;52.270;6.832;2024-01-11T05:47:52;-2.20;94.70
47310;DHT22;33046;52.270;6.832;2024-01-11T05:49:59;-2.10;94.80
47310;DHT22;33046;52.270;6.832;2024-01-11T05:52:06;-2.20;94.70
47310;DHT22;33046;52.270;6.832;2024-01-11T05:54:12;-2.20;95.00
47310;DHT22;33046;52.270;6.832;2024-01-11T05:56:19;-2.10;95.00
47310;DHT22;33046;52.270;6.832;2024-01-11T05:58:26;-2.10;95.00
47310;DHT22;33046;52.270;6.832;2024-01-11T06:00:33;-2.10;95.30
47310;DHT22;33046;52.270;6.832;2024-01-11T06:02:40;-2.10;95.30
47310;DHT22;33046;52.270;6.832;2024-01-11T06:04:48;-2.20;95.40
47310;DHT22;33046;52.270;6.832;2024-01-11T06:06:55;-2.10;95.40
47310;DHT22;33046;52.270;6.832;2024-01-11T06:09:02;-2.20;95.40
47310;DHT22;33046;52.270;6.832;2024-01-11T06:11:09;-2.20;95.50
47310;DHT22;33046;52.270;6.832;2024-01-11T06:13:16;-2.10;95.70
47310;DHT22;33046;52.270;6.832;2024-01-11T06:15:23;-2.10;95.50
47310;DHT22;33046;52.270;6.832;2024-01-11T06:17:29;-2.10;95.40
47310;DHT22;33046;52.270;6.832;2024-01-11T06:19:37;-2.10;95.40
47310;DHT22;33046;52.270;6.832;2024-01-11T06:21:45;-2.20;95.50
47310;DHT22;33046;52.270;6.832;2024-01-11T06:23:52;-2.20;95.60
47310;DHT22;33046;52.270;6.832;2024-01-11T06:25:59;-2.10;95.60
47310;DHT22;33046;52.270;6.832;2024-01-11T06:28:06;-2.10;95.60
47310;DHT22;33046;52.270;6.832;2024-01-11T06:30:13;-2.10;95.60
47310;DHT22;33046;52.270;6.832;2024-01-11T06:32:21;-2.10;95.60
47310;DHT22;33046;52.270;6.832;2024-01-11T06:34:28;-2.10;95.50
47310;DHT22;33046;52.270;6.832;2024-01-11T06:36:35;-2.10;95.50
47310;DHT22;33046;52.270;6.832;2024-01-11T06:38:43;-2.10;95.60
47310;DHT22;33046;52.270;6.832;2024-01-11T06:40:50;-2.10;95.40
47310;DHT22;33046;52.270;6.832;2024-01-11T06:42:57;-2.10;95.30
47310;DHT22;33046;52.270;6.832;2024-01-11T06:45:04;-2.00;95.40
47310;DHT22;33046;52.270;6.832;2024-01-11T06:47:11;-2.00;95.40
47310;DHT22;33046;52.270;6.832;2024-01-11T06:49:18;-2.00;95.40
47310;DHT22;33046;52.270;6.832;2024-01-11T06:51:25;-2.00;95.20
47310;DHT22;33046;52.270;6.832;2024-01-11T06:53:32;-2.10;95.10
47310;DHT22;33046;52.270;6.832;2024-01-11T06:55:40;-2.00;95.20
47310;DHT22;33046;52.270;6.832;2024-01-11T06:57:47;-2.10;95.20
47310;DHT22;33046;52.270;6.832;2024-01-11T06:59:54;-2.10;95.30
47310;DHT22;33046;52.270;6.832;2024-01-11T07:02:01;-2.00;95.40
47310;DHT22;33046;52.270;6.832;2024-01-11T07:04:08;-2.00;95.40
47310;DHT22;33046;52.270;6.832;2024-01-11T07:06:14;-2.10;95.30
47310;DHT22;33046;52.270;6.832;2024-01-11T07:08:21;-2.10;95.60
47310;DHT22;33046;52.270;6.832;2024-01-11T07:10:28;-2.10;95.70
47310;DHT22;33046;52.270;6.832;2024-01-11T07:12:36;-2.10;95.60
47310;DHT22;33046;52.270;6.832;2024-01-11T07:14:43;-2.10;95.70
47310;DHT22;33046;52.270;6.832;2024-01-11T07:16:50;-2.10;95.40
47310;DHT22;33046;52.270;6.832;2024-01-11T07:18:57;-2.10;95.40
47310;DHT22;33046;52.270;6.832;2024-01-11T07:21:04;-2.10;95.50
47310;DHT22;33046;52.270;6.832;2024-01-11T07:23:11;-2.10;95.60
47310;DHT22;33046;52.270;6.832;2024-01-11T07:25:18;-2.10;95.50
47310;DHT22;33046;52.270;6.832;2024-01-11T07:27:25;-2.10;95.50
47310;DHT22;33046;52.270;6.832;2024-01-11T07:29:33;-2.10;95.50
47310;DHT22;33046;52.270;6.832;2024-01-11T07:31:40;-2.10;95.60
47310;DHT22;33046;52.270;6.832;2024-01-11T07:33:47;-2.10;95.60
47310;DHT22;33046;52.270;6.832;2024-01-11T07:35:54;-2.10;95.80
47310;DHT22;33046;52.270;6.832;2024-01-11T07:38:01;-2.10;95.80
47310;DHT22;33046;52.270;6.832;2024-01-11T07:40:09;-2.10;95.90
47310;DHT22;33046;52.270;6.832;2024-01-11T07:42:15;-2.10;95.90
47310;DHT22;33046;52.270;6.832;2024-01-11T07:44:22;-2.10;95.80
47310;DHT22;33046;52.270;6.832;2024-01-11T07:46:30;-2.10;95.70
47310;DHT22;33046;52.270;6.832;2024-01-11T07:48:38;-2.10;95.80
47310;DHT22;33046;52.270;6.832;2024-01-11T07:50:45;-2.10;95.90
47310;DHT22;33046;52.270;6.832;2024-01-11T07:52:52;-2.10;95.90
47310;DHT22;33046;52.270;6.832;2024-01-11T07:54:59;-2.10;95.90
47310;DHT22;33046;52.270;6.832;2024-01-11T07:57:05;-2.10;95.90
47310;DHT22;33046;52.270;6.832;2024-01-11T07:59:12;-2.10;96.00
47310;DHT22;33046;52.270;6.832;2024-01-11T08:01:19;-2.10;96.00
47310;DHT22;33046;52.270;6.832;2024-01-11T08:03:27;-2.10;96.00
47310;DHT22;33046;52.270;6.832;2024-01-11T08:05:34;-2.10;96.10
47310;DHT22;33046;52.270;6.832;2024-01-11T08:07:41;-2.10;96.20
47310;DHT22;33046;52.270;6.832;2024-01-11T08:09:48;-2.10;96.20
47310;DHT22;33046;52.270;6.832;2024-01-11T08:11:55;-2.10;96.30
47310;DHT22;33046;52.270;6.832;2024-01-11T08:14:03;-2.00;96.30
47310;DHT22;33046;52.270;6.832;2024-01-11T08:16:15;-2.00;96.30
47310;DHT22;33046;52.270;6.832;2024-01-11T08:18:22;-2.00;96.30
47310;DHT22;33046;52.270;6.832;2024-01-11T08:20:30;-2.00;96.30
47310;DHT22;33046;52.270;6.832;2024-01-11T08:22:38;-2.00;96.30
47310;DHT22;33046;52.270;6.832;2024-01-11T08:24:45;-2.00;96.40
47310;DHT22;33046;52.270;6.832;2024-01-11T08:26:52;-2.00;96.40
47310;DHT22;33046;52.270;6.832;2024-01-11T08:28:59;-1.90;96.60
47310;DHT22;33046;52.270;6.832;2024-01-11T08:31:06;-1.90;96.80
47310;DHT22;33046;52.270;6.832;2024-01-11T08:33:13;-2.00;97.10
47310;DHT22;33046;52.270;6.832;2024-01-11T08:35:20;-1.90;97.30
47310;DHT22;33046;52.270;6.832;2024-01-11T08:37:28;-2.00;97.70
47310;DHT22;33046;52.270;6.832;2024-01-11T08:39:35;-2.00;98.00
47310;DHT22;33046;52.270;6.832;2024-01-11T08:41:42;-1.90;98.20
47310;DHT22;33046;52.270;6.832;2024-01-11T08:43:48;-1.90;98.50
47310;DHT22;33046;52.270;6.832;2024-01-11T08:45:55;-1.90;98.50
47310;DHT22;33046;52.270;6.832;2024-01-11T08:48:03;-1.90;99.20
47310;DHT22;33046;52.270;6.832;2024-01-11T08:50:12;-1.90;99.40
47310;DHT22;33046;52.270;6.832;2024-01-11T08:52:19;-1.80;99.50
47310;DHT22;33046;52.270;6.832;2024-01-11T08:54:27;-1.80;99.90
47310;DHT22;33046;52.270;6.832;2024-01-11T08:56:34;-1.80;99.90
47310;DHT22;33046;52.270;6.832;2024-01-11T08:58:41;-1.70;99.90
47310;DHT22;33046;52.270;6.832;2024-01-11T09:00:49;-1.70;99.90
47310;DHT22;33046;52.270;6.832;2024-01-11T09:02:55;-1.60;99.90
47310;DHT22;33046;52.270;6.832;2024-01-11T09:05:03;-1.60;99.90
47310;DHT22;33046;52.270;6.832;2024-01-11T09:07:09;-1.60;99.90
47310;DHT22;33046;52.270;6.832;2024-01-11T09:09:16;-1.60;99.90
47310;DHT22;33046;52.270;6.832;2024-01-11T09:11:24;-1.50;99.90
47310;DHT22;33046;52.270;6.832;2024-01-11T09:13:31;-1.40;99.90
47310;DHT22;33046;52.270;6.832;2024-01-11T09:15:38;-1.40;99.90
47310;DHT22;33046;52.270;6.832;2024-01-11T09:17:45;-1.40;99.90
47310;DHT22;33046;52.270;6.832;2024-01-11T09:19:52;-1.30;99.90
47310;DHT22;33046;52.270;6.832;2024-01-11T09:21:59;-1.30;99.90
47310;DHT22;33046;52.270;6.832;2024-01-11T09:24:06;-1.20;99.90
47310;DHT22;33046;52.270;6.832;2024-01-11T09:26:13;-1.20;99.90
47310;DHT22;33046;52.270;6.832;2024-01-11T09:28:21;-1.10;99.90
47310;DHT22;33046;52.270;6.832;2024-01-11T09:30:28;-1.10;99.90
47310;DHT22;33046;52.270;6.832;2024-01-11T09:32:35;-1.10;99.90
47310;DHT22;33046;52.270;6.832;2024-01-11T09:34:42;-1.00;99.90
47310;DHT22;33046;52.270;6.832;2024-01-11T09:36:48;-1.00;99.90
47310;DHT22;33046;52.270;6.832;2024-01-11T09:38:55;-1.00;99.90
47310;DHT22;33046;52.270;6.832;2024-01-11T09:41:07;-0.90;99.90
47310;DHT22;33046;52.270;6.832;2024-01-11T09:43:15;-0.90;99.90
47310;DHT22;33046;52.270;6.832;2024-01-11T09:45:24;-0.80;99.90
47310;DHT22;33046;52.270;6.832;2024-01-11T09:47:32;-0.80;99.90
47310;DHT22;33046;52.270;6.832;2024-01-11T09:49:41;-0.80;99.90
47310;DHT22;33046;52.270;6.832;2024-01-11T09:51:49;-0.70;99.90
47310;DHT22;33046;52.270;6.832;2024-01-11T09:53:58;-0.70;99.90
47310;DHT22;33046;52.270;6.832;2024-01-11T09:56:07;-0.60;99.90
47310;DHT22;33046;52.270;6.832;2024-01-11T09:58:15;-0.60;99.90
47310;DHT22;33046;52.270;6.832;2024-01-11T10:00:24;-0.60;99.90
47310;DHT22;33046;52.270;6.832;2024-01-11T10:02:31;-0.50;99.90
47310;DHT22;33046;52.270;6.832;2024-01-11T10:04:38;-0.50;99.90
47310;DHT22;33046;52.270;6.832;2024-01-11T10:06:45;-0.40;99.90
47310;DHT22;33046;52.270;6.832;2024-01-11T10:08:52;-0.40;99.90
47310;DHT22;33046;52.270;6.832;2024-01-11T10:10:59;-0.40;99.90
47310;DHT22;33046;52.270;6.832;2024-01-11T10:13:06;-0.30;99.90
47310;DHT22;33046;52.270;6.832;2024-01-11T10:15:13;-0.40;99.90
47310;DHT22;33046;52.270;6.832;2024-01-11T10:17:21;-0.30;99.90
47310;DHT22;33046;52.270;6.832;2024-01-11T10:19:28;-0.40;99.90
47310;DHT22;33046;52.270;6.832;2024-01-11T10:21:37;-0.40;99.90
47310;DHT22;33046;52.270;6.832;2024-01-11T10:23:44;-0.30;99.90
47310;DHT22;33046;52.270;6.832;2024-01-11T10:25:51;-0.30;99.90
47310;DHT22;33046;52.270;6.832;2024-01-11T10:27:58;-0.20;99.90
47310;DHT22;33046;52.270;6.832;2024-01-11T10:30:06;-0.30;99.90
47310;DHT22;33046;52.270;6.832;2024-01-11T10:32:13;-0.20;99.90
47310;DHT22;33046;52.270;6.832;2024-01-11T10:34:23;-0.20;99.90
47310;DHT22;33046;52.270;6.832;2024-01-11T10:36:31;-0.10;99.90
47310;DHT22;33046;52.270;6.832;2024-01-11T10:38:39;-0.10;99.90
47310;DHT22;33046;52.270;6.832;2024-01-11T10:40:46;-0.10;99.90
47310;DHT22;33046;52.270;6.832;2024-01-11T10:42:53;-0.10;99.90
47310;DHT22;33046;52.270;6.832;2024-01-11T10:45:10;0.00;99.90
47310;DHT22;33046;52.270;6.832;2024-01-11T10:47:20;0.00;99.90
47310;DHT22;33046;52.270;6.832;2024-01-11T10:49:30;0.00;99.90
47310;DHT22;33046;52.270;6.832;2024-01-11T10:51:40;0.10;99.90
47310;DHT22;33046;52.270;6.832;2024-01-11T10:53:48;0.10;99.90
47310;DHT22;33046;52.270;6.832;2024-01-11T10:55:57;0.10;99.90
47310;DHT22;33046;52.270;6.832;2024-01-11T10:58:06;0.20;99.90
47310;DHT22;33046;52.270;6.832;2024-01-11T11:00:13;0.20;99.90
47310;DHT22;33046;52.270;6.832;2024-01-11T11:02:21;0.20;99.90
47310;DHT22;33046;52.270;6.832;2024-01-11T11:04:31;0.20;99.90
47310;DHT22;33046;52.270;6.832;2024-01-11T11:06:39;0.30;99.90
47310;DHT22;33046;52.270;6.832;2024-01-11T11:08:47;0.30;99.90
47310;DHT22;33046;52.270;6.832;2024-01-11T11:10:56;0.30;99.90
47310;DHT22;33046;52.270;6.832;2024-01-11T11:13:04;0.30;99.90
47310;DHT22;33046;52.270;6.832;2024-01-11T11:15:12;0.30;99.90
47310;DHT22;33046;52.270;6.832;2024-01-11T11:17:19;0.30;99.90
47310;DHT22;33046;52.270;6.832;2024-01-11T11:19:27;0.40;99.90
47310;DHT22;33046;52.270;6.832;2024-01-11T11:21:43;0.40;99.90
47310;DHT22;33046;52.270;6.832;2024-01-11T11:23:50;0.40;99.90
47310;DHT22;33046;52.270;6.832;2024-01-11T11:25:57;0.50;99.90
47310;DHT22;33046;52.270;6.832;2024-01-11T11:28:04;0.50;99.90
47310;DHT22;33046;52.270;6.832;2024-01-11T11:30:11;0.50;99.90
47310;DHT22;33046;52.270;6.832;2024-01-11T11:32:35;0.50;99.90
47310;DHT22;33046;52.270;6.832;2024-01-11T11:34:42;0.60;99.90
47310;DHT22;33046;52.270;6.832;2024-01-11T11:36:50;0.60;99.90
47310;DHT22;33046;52.270;6.832;2024-01-11T11:38:58;0.60;99.90
47310;DHT22;33046;52.270;6.832;2024-01-11T11:41:05;0.60;99.90
47310;DHT22;33046;52.270;6.832;2024-01-11T11:43:13;0.60;99.90
47310;DHT22;33046;52.270;6.832;2024-01-11T11:45:24;0.60;99.90
47310;DHT22;33046;52.270;6.832;2024-01-11T11:47:33;0.60;99.90
47310;DHT22;33046;52.270;6.832;2024-01-11T11:49:57;0.60;99.90
47310;DHT22;33046;52.270;6.832;2024-01-11T11:52:05;0.70;99.90
47310;DHT22;33046;52.270;6.832;2024-01-11T11:54:12;0.70;99.90
47310;DHT22;33046;52.270;6.832;2024-01-11T11:56:22;0.70;99.90
47310;DHT22;33046;52.270;6.832;2024-01-11T11:58:29;0.80;99.90
47310;DHT22;33046;52.270;6.832;2024-01-11T12:00:37;0.80;99.90
47310;DHT22;33046;52.270;6.832;2024-01-11T12:02:46;0.70;99.90
47310;DHT22;33046;52.270;6.832;2024-01-11T12:04:53;0.80;99.90
47310;DHT22;33046;52.270;6.832;2024-01-11T12:07:02;0.80;99.90
47310;DHT22;33046;52.270;6.832;2024-01-11T12:09:10;0.80;99.90
47310;DHT22;33046;52.270;6.832;2024-01-11T12:11:18;0.80;99.90
47310;DHT22;33046;52.270;6.832;2024-01-11T12:13:26;0.80;99.90
47310;DHT22;33046;52.270;6.832;2024-01-11T12:15:33;0.90;99.90
47310;DHT22;33046;52.270;6.832;2024-01-11T12:17:40;0.90;99.90
47310;DHT22;33046;52.270;6.832;2024-01-11T12:19:47;0.90;99.90
47310;DHT22;33046;52.270;6.832;2024-01-11T12:21:53;1.00;99.90
47310;DHT22;33046;52.270;6.832;2024-01-11T12:24:00;1.00;99.90
47310;DHT22;33046;52.270;6.832;2024-01-11T12:26:09;1.00;99.90
47310;DHT22;33046;52.270;6.832;2024-01-11T12:28:15;1.10;99.90
47310;DHT22;33046;52.270;6.832;2024-01-11T12:30:23;1.10;99.90
47310;DHT22;33046;52.270;6.832;2024-01-11T12:32:30;1.10;99.90
47310;DHT22;33046;52.270;6.832;2024-01-11T12:34:37;1.10;99.90
47310;DHT22;33046;52.270;6.832;2024-01-11T12:36:44;1.10;99.90
47310;DHT22;33046;52.270;6.832;2024-01-11T12:38:52;1.20;99.90
47310;DHT22;33046;52.270;6.832;2024-01-11T12:40:59;1.20;99.90
47310;DHT22;33046;52.270;6.832;2024-01-11T12:43:07;1.30;99.90
47310;DHT22;33046;52.270;6.832;2024-01-11T12:45:14;1.30;99.90
47310;DHT22;33046;52.270;6.832;2024-01-11T12:47:21;1.30;99.90
47310;DHT22;33046;52.270;6.832;2024-01-11T12:49:29;1.30;99.90
47310;DHT22;33046;52.270;6.832;2024-01-11T12:51:36;1.30;99.90
47310;DHT22;33046;52.270;6.832;2024-01-11T12:53:45;1.30;99.90
47310;DHT22;33046;52.270;6.832;2024-01-11T12:56:03;1.40;99.90
47310;DHT22;33046;52.270;6.832;2024-01-11T12:58:11;1.40;99.90
47310;DHT22;33046;52.270;6.832;2024-01-11T13:00:19;1.40;99.90
47310;DHT22;33046;52.270;6.832;2024-01-11T13:02:26;1.40;99.90
47310;DHT22;33046;52.270;6.832;2024-01-11T13:04:34;1.50;99.90
47310;DHT22;33046;52.270;6.832;2024-01-11T13:06:40;1.50;99.90
47310;DHT22;33046;52.270;6.832;2024-01-11T13:08:47;1.50;99.90
47310;DHT22;33046;52.270;6.832;2024-01-11T13:10:54;1.50;99.90
47310;DHT22;33046;52.270;6.832;2024-01-11T13:13:02;1.50;99.90
47310;DHT22;33046;52.270;6.832;2024-01-11T13:15:12;1.60;99.90
47310;DHT22;33046;52.270;6.832;2024-01-11T13:17:19;1.60;99.90
47310;DHT22;33046;52.270;6.832;2024-01-11T13:19:26;1.60;99.90
47310;DHT22;33046;52.270;6.832;2024-01-11T13:21:33;1.60;99.90
47310;DHT22;33046;52.270;6.832;2024-01-11T13:23:40;1.60;99.90
47310;DHT22;33046;52.270;6.832;2024-01-11T13:25:48;1.70;99.90
47310;DHT22;33046;52.270;6.832;2024-01-11T13:27:55;1.70;99.90
47310;DHT22;33046;52.270;6.832;2024-01-11T13:30:02;1.70;99.90